Khabarovsk, Russia

9:33 AM +10 on October 18, 2019 (GMT +1000)
Khabarovsk Dom Radio | | Change Station

Elev 363 ft 48.47 °N, 135.07 °E | Updated 20 seconds ago

Clear
Clear
41.9 °F
Feels Like 37 °F
N
7.83
Wind Variable Wind from WSW
Gusts 10.1 mph

Today
High -- | Low -- °F
--% Chance of Precip.
Yesterday
High -- | Low -- °F
Precip. -- in
Pressure 30.33 in
Visibility -9999.0 miles
Clouds
Windchill 37 °F
Dew Point 25 °F
Humidity 50%
Rainfall 0.00 in
Snow Depth Not available.
7:22 AM 6:06 PM
Waning Gibbous, 84% visible
METAR UHHH 172300Z 20002MPS 150V270 CAVOK 05/M04 Q1027 R23L/090060 NOSIG RMK QFE764/1018
Pressure 30.33 in
Visibility -9999.0 miles
Clouds
Windchill 37 °F
Dew Point 25 °F
Humidity 50%
Rainfall 0.00 in
Snow Depth Not available.
7:22 AM 6:06 PM
Waning Gibbous, 84% visible
METAR UHHH 172300Z 20002MPS 150V270 CAVOK 05/M04 Q1027 R23L/090060 NOSIG RMK QFE764/1018

Get Severe Weather Alerts

Thanks for signing up!

Be on the lookout for a verification email in your inbox.

You'll start receiving the daily forecast at 6 AM.

×

10-Day Weather Forecast

×

Almanac

Astronomy

Oct. 18, 2019 Rise Set
Actual Time
Civil Twilight
Nautical Twilight
Astronomical Twilight
Moon
Length of Visible Light
Length of Day
Tomorrow will be .
, % of the Moon is Illuminated

Today's Extremes

Country Highs Country Lows

Community

WunderPhotos

Category 6

Welcome to Category 6. This is the collective home for Weather Underground's featured writeups by Dr. Jeff Masters (right), Bob Henson (left), Chris Burt, and other regular contributors.

Nearby

Air Quality

  Air Quality AQ Index Pollutant
Not available.

Snow Depth

Station Depth Elevation

Earthquake Activity

City Distance Mag. Time & Date
Minimum magnitude displayed is 2.5.

Coastal Water Temperatures

Place Temperature

Stations

Nearby Weather Stations

Station Location Temp. Windchill Dew Point Humidity Wind Precip. Elev Updated Type